Time;durP1;ratioP1;P1;durP2;ratioP2;P2;SDS_P1;SDS_P2;PMS_P1;PMS_P2;Temp;Humidity;BMP_temperature;BMP_pressure;BME280_temperature;BME280_humidity;BME280_pressure;Samples;Min_cycle;Max_cycle;Signal;HPM_P1;HPM_P2
2022/08/02 00:00:56;;;;;;;;;;;26.90;81.30;;;;;;5054226;28;19935;-60
2022/08/02 00:03:23;;;;;;;;;;;26.90;81.40;;;;;;5042515;28;19925;-58
2022/08/02 00:05:51;;;;;;;;;;;26.90;81.30;;;;;;5056919;28;19932;-57
2022/08/02 00:08:20;;;;;;;;;;;26.90;81.40;;;;;;5043324;28;20055;-60
2022/08/02 00:10:47;;;;;;;;;;;26.90;81.40;;;;;;5057646;28;19925;-57
2022/08/02 00:13:14;;;;;;;;;;;26.90;81.50;;;;;;5052560;28;19932;-60
2022/08/02 00:15:42;;;;;;;;;;;26.90;81.50;;;;;;5046862;28;19929;-53
2022/08/02 00:18:09;;;;;;;;;;;26.90;81.50;;;;;;5039034;28;19929;-59
2022/08/02 00:20:36;;;;;;;;;;;26.90;81.40;;;;;;5052076;28;20304;-56
2022/08/02 00:23:03;;;;;;;;;;;26.90;81.60;;;;;;5037705;28;19932;-58
2022/08/02 00:25:30;;;;;;;;;;;26.90;81.50;;;;;;5054591;28;19933;-57
2022/08/02 00:27:57;;;;;;;;;;;26.90;81.60;;;;;;5043675;28;19940;-56
2022/08/02 00:30:24;;;;;;;;;;;26.80;81.50;;;;;;5049978;28;19929;-55
2022/08/02 00:32:51;;;;;;;;;;;26.90;81.40;;;;;;5053372;28;19929;-58
2022/08/02 00:35:19;;;;;;;;;;;26.80;81.40;;;;;;5044116;28;19936;-58
2022/08/02 00:37:46;;;;;;;;;;;26.80;81.50;;;;;;5048222;28;19929;-57
2022/08/02 00:40:13;;;;;;;;;;;26.90;81.50;;;;;;5049108;28;19951;-57
2022/08/02 00:42:40;;;;;;;;;;;26.80;81.60;;;;;;5050749;28;19929;-58
2022/08/02 00:45:07;;;;;;;;;;;26.80;81.50;;;;;;5038082;28;19943;-60
2022/08/02 00:47:35;;;;;;;;;;;26.80;81.50;;;;;;5047022;28;20394;-60
2022/08/02 00:50:02;;;;;;;;;;;26.90;81.70;;;;;;5056247;28;20014;-61
2022/08/02 00:52:29;;;;;;;;;;;26.80;81.60;;;;;;5048282;28;19928;-59
2022/08/02 00:54:56;;;;;;;;;;;26.80;81.70;;;;;;5047323;28;20411;-59
2022/08/02 00:57:23;;;;;;;;;;;26.80;81.60;;;;;;5053780;28;19928;-61
2022/08/02 00:59:50;;;;;;;;;;;26.80;81.70;;;;;;5041634;28;19931;-57
2022/08/02 01:02:17;;;;;;;;;;;26.80;81.70;;;;;;5048610;28;20323;-57
2022/08/02 01:04:45;;;;;;;;;;;26.80;81.70;;;;;;5045596;28;19954;-61
2022/08/02 01:07:13;;;;;;;;;;;26.80;81.70;;;;;;5056132;28;19936;-60
2022/08/02 01:09:41;;;;;;;;;;;26.80;81.80;;;;;;5051187;28;19929;-62
2022/08/02 01:12:08;;;;;;;;;;;26.70;82.30;;;;;;5047776;28;19932;-62
2022/08/02 01:14:36;;;;;;;;;;;26.70;81.70;;;;;;5048188;28;19931;-61
2022/08/02 01:17:26;;;;;;;;;;;26.70;81.70;;;;;;5045927;28;20406;-60
2022/08/02 01:20:03;;;;;;;;;;;26.80;81.80;;;;;;5040361;28;19947;-56
2022/08/02 01:22:56;;;;;;;;;;;26.80;82.00;;;;;;5049405;28;19924;-60
2022/08/02 01:25:47;;;;;;;;;;;26.80;81.90;;;;;;5038605;28;19977;-61
2022/08/02 01:28:14;;;;;;;;;;;26.70;81.90;;;;;;5046154;28;19929;-60
2022/08/02 01:30:43;;;;;;;;;;;26.70;81.90;;;;;;5052519;28;20384;-57
2022/08/02 01:33:11;;;;;;;;;;;26.70;81.90;;;;;;5051706;28;20043;-56
2022/08/02 01:35:40;;;;;;;;;;;26.70;81.90;;;;;;5044961;28;20394;-59
2022/08/02 01:38:26;;;;;;;;;;;26.70;82.00;;;;;;5045942;28;19929;-61
2022/08/02 01:40:55;;;;;;;;;;;26.70;82.00;;;;;;5049303;28;19929;-61
2022/08/02 01:43:23;;;;;;;;;;;26.70;82.00;;;;;;5051083;28;19928;-58
2022/08/02 01:45:51;;;;;;;;;;;26.70;82.00;;;;;;5044895;28;19928;-59
2022/08/02 01:48:19;;;;;;;;;;;26.70;82.10;;;;;;5041523;28;19933;-58
2022/08/02 01:50:47;;;;;;;;;;;26.70;82.20;;;;;;5050582;28;19929;-59
2022/08/02 01:53:17;;;;;;;;;;;26.70;82.10;;;;;;5051278;28;19928;-59
2022/08/02 01:55:45;;;;;;;;;;;26.70;82.10;;;;;;5045139;28;20422;-61
2022/08/02 01:58:26;;;;;;;;;;;26.70;82.10;;;;;;5046797;28;19929;-59
2022/08/02 02:00:55;;;;;;;;;;;26.60;82.10;;;;;;5040878;28;20277;-60
2022/08/02 02:03:23;;;;;;;;;;;26.60;82.00;;;;;;5054751;28;20384;-57
2022/08/02 02:05:52;;;;;;;;;;;26.60;82.10;;;;;;5052992;28;19947;-58
2022/08/02 02:08:22;;;;;;;;;;;26.60;82.20;;;;;;5044758;28;19929;-58
2022/08/02 02:10:54;;;;;;;;;;;26.60;82.20;;;;;;5057744;28;20420;-57
2022/08/02 02:13:23;;;;;;;;;;;26.60;82.20;;;;;;5049435;28;19929;-59
2022/08/02 02:16:02;;;;;;;;;;;26.60;82.20;;;;;;5037982;28;19929;-58
2022/08/02 02:18:29;;;;;;;;;;;26.60;82.20;;;;;;5055038;28;20035;-58
2022/08/02 02:20:56;;;;;;;;;;;26.60;82.20;;;;;;5048869;28;20737;-57
2022/08/02 02:23:24;;;;;;;;;;;26.60;82.10;;;;;;5042753;28;19933;-57
2022/08/02 02:25:52;;;;;;;;;;;26.60;82.20;;;;;;5040588;28;19929;-58
2022/08/02 02:28:27;;;;;;;;;;;26.60;82.20;;;;;;5056033;28;19928;-59
2022/08/02 02:30:59;;;;;;;;;;;26.60;82.20;;;;;;5051276;28;20770;-61
2022/08/02 02:33:29;;;;;;;;;;;26.60;82.00;;;;;;5054485;28;19928;-59
2022/08/02 02:35:56;;;;;;;;;;;26.50;81.90;;;;;;5051106;28;20490;-60
2022/08/02 02:38:26;;;;;;;;;;;26.50;81.90;;;;;;5057982;28;20835;-59
2022/08/02 02:40:55;;;;;;;;;;;26.50;81.90;;;;;;5053387;28;19925;-60
2022/08/02 02:43:23;;;;;;;;;;;26.50;81.90;;;;;;5053633;28;19939;-59
2022/08/02 02:45:51;;;;;;;;;;;26.50;81.80;;;;;;5054536;28;19924;-59
2022/08/02 02:48:19;;;;;;;;;;;26.50;81.90;;;;;;5047845;28;19929;-59
2022/08/02 02:50:47;;;;;;;;;;;26.50;81.90;;;;;;5051521;28;19939;-56
2022/08/02 02:53:17;;;;;;;;;;;26.50;82.00;;;;;;5044310;28;20300;-55
2022/08/02 02:55:44;;;;;;;;;;;26.50;82.00;;;;;;5045673;28;20534;-60
2022/08/02 02:58:29;;;;;;;;;;;26.50;82.10;;;;;;5056625;28;19932;-59
2022/08/02 03:03:43;;;;;;;;;;;26.50;82.20;;;;;;5041456;28;19936;-57
2022/08/02 03:06:11;;;;;;;;;;;26.50;82.20;;;;;;5045943;28;19928;-58
2022/08/02 03:08:42;;;;;;;;;;;26.40;82.10;;;;;;5049809;28;19987;-57
2022/08/02 03:11:10;;;;;;;;;;;26.50;82.20;;;;;;5040096;28;20352;-56
2022/08/02 03:13:37;;;;;;;;;;;26.50;82.20;;;;;;5057585;28;19940;-60
2022/08/02 03:16:05;;;;;;;;;;;26.50;82.20;;;;;;5050414;28;19928;-58
2022/08/02 03:18:33;;;;;;;;;;;26.50;82.20;;;;;;5055149;28;19932;-58
2022/08/02 03:21:01;;;;;;;;;;;26.50;82.30;;;;;;5043575;28;20303;-55
2022/08/02 03:23:28;;;;;;;;;;;26.50;82.30;;;;;;5059778;28;19932;-55
2022/08/02 03:25:56;;;;;;;;;;;26.50;82.30;;;;;;5063773;28;20047;-60
2022/08/02 03:28:23;;;;;;;;;;;26.40;82.30;;;;;;5069597;28;19944;-60
2022/08/02 03:30:50;;;;;;;;;;;26.40;82.30;;;;;;5051320;28;19929;-57
2022/08/02 03:33:18;;;;;;;;;;;26.40;82.30;;;;;;5047247;28;19944;-57
2022/08/02 03:35:46;;;;;;;;;;;26.40;82.40;;;;;;5045141;28;19949;-57
2022/08/02 03:38:15;;;;;;;;;;;26.40;82.40;;;;;;5041454;28;19925;-61
2022/08/02 03:40:42;;;;;;;;;;;26.40;82.50;;;;;;5053357;28;20203;-62
2022/08/02 03:43:10;;;;;;;;;;;26.40;82.70;;;;;;5054860;28;19928;-56
2022/08/02 03:45:46;;;;;;;;;;;26.40;82.70;;;;;;5042610;28;19929;-58
2022/08/02 03:48:14;;;;;;;;;;;26.40;82.70;;;;;;5056403;28;19929;-60
2022/08/02 03:51:01;;;;;;;;;;;26.40;83.00;;;;;;5060302;28;20408;-61
2022/08/02 03:53:28;;;;;;;;;;;26.40;82.90;;;;;;5050652;28;19944;-59
2022/08/02 03:55:55;;;;;;;;;;;26.40;82.80;;;;;;5054522;28;20380;-60
2022/08/02 03:58:23;;;;;;;;;;;26.40;82.80;;;;;;5050216;28;20305;-61
2022/08/02 04:00:51;;;;;;;;;;;26.30;82.80;;;;;;5054863;28;19925;-57
2022/08/02 04:03:19;;;;;;;;;;;26.30;82.80;;;;;;5046505;28;19929;-56
2022/08/02 04:05:46;;;;;;;;;;;26.30;82.70;;;;;;5043767;28;19929;-56
2022/08/02 04:08:31;;;;;;;;;;;26.30;82.70;;;;;;5054063;28;19936;-60
2022/08/02 04:13:50;;;;;;;;;;;26.30;82.80;;;;;;5043516;28;19928;-56
2022/08/02 04:16:19;;;;;;;;;;;26.30;82.80;;;;;;5044534;28;19938;-57
2022/08/02 04:18:52;;;;;;;;;;;26.30;82.90;;;;;;5047698;28;19929;-61
2022/08/02 04:21:20;;;;;;;;;;;26.30;83.00;;;;;;5056571;28;20269;-60
2022/08/02 04:23:49;;;;;;;;;;;26.30;83.10;;;;;;5050692;28;19924;-56
2022/08/02 04:26:17;;;;;;;;;;;26.30;83.00;;;;;;5045650;28;20411;-52
2022/08/02 04:28:53;;;;;;;;;;;26.30;82.90;;;;;;5057796;28;20376;-58
2022/08/02 04:31:21;;;;;;;;;;;26.30;83.10;;;;;;5045980;28;19924;-52
2022/08/02 04:33:48;;;;;;;;;;;26.20;82.90;;;;;;5048722;28;19932;-59
2022/08/02 04:36:15;;;;;;;;;;;26.30;82.90;;;;;;5047887;28;20207;-59
2022/08/02 04:38:58;;;;;;;;;;;26.30;83.10;;;;;;5047885;28;20376;-59
2022/08/02 04:41:40;;;;;;;;;;;26.20;82.90;;;;;;5043737;28;19933;-53
2022/08/02 04:44:13;;;;;;;;;;;26.20;82.90;;;;;;5042109;28;19929;-57
2022/08/02 04:46:41;;;;;;;;;;;26.20;82.90;;;;;;5050688;28;19936;-59
2022/08/02 04:49:09;;;;;;;;;;;26.20;82.90;;;;;;5048887;28;19933;-57
2022/08/02 04:51:36;;;;;;;;;;;26.20;82.80;;;;;;5046155;28;19940;-56
2022/08/02 04:54:05;;;;;;;;;;;26.20;82.80;;;;;;5052176;28;19925;-59
2022/08/02 04:56:37;;;;;;;;;;;26.20;82.70;;;;;;5043795;28;19929;-58
2022/08/02 04:59:05;;;;;;;;;;;26.20;82.80;;;;;;5049017;28;19928;-58
2022/08/02 05:01:34;;;;;;;;;;;26.20;82.80;;;;;;5045910;28;19956;-55
2022/08/02 05:04:02;;;;;;;;;;;26.20;82.80;;;;;;5053202;28;20403;-58
2022/08/02 05:06:29;;;;;;;;;;;26.20;82.90;;;;;;5044983;28;19935;-58
2022/08/02 05:08:56;;;;;;;;;;;26.20;83.20;;;;;;5050439;28;19937;-58
2022/08/02 05:11:23;;;;;;;;;;;26.20;83.40;;;;;;5050186;28;20426;-61
2022/08/02 05:14:05;;;;;;;;;;;26.20;83.60;;;;;;5052384;28;19925;-58
2022/08/02 05:16:32;;;;;;;;;;;26.20;83.40;;;;;;5047919;28;19932;-60
2022/08/02 05:19:00;;;;;;;;;;;26.30;83.50;;;;;;5057466;28;19924;-58
2022/08/02 05:21:30;;;;;;;;;;;26.30;83.30;;;;;;5048855;28;19933;-59
2022/08/02 05:23:57;;;;;;;;;;;26.20;83.40;;;;;;5050851;28;19948;-59
2022/08/02 05:26:24;;;;;;;;;;;26.30;83.40;;;;;;5056263;28;20673;-59
2022/08/02 05:28:52;;;;;;;;;;;26.30;83.50;;;;;;5059019;28;19933;-57
2022/08/02 05:31:19;;;;;;;;;;;26.30;83.30;;;;;;5049722;28;19929;-56
2022/08/02 05:33:46;;;;;;;;;;;26.30;83.60;;;;;;5050707;28;19933;-58
2022/08/02 05:36:14;;;;;;;;;;;26.30;83.60;;;;;;5055357;28;19945;-60
2022/08/02 05:38:41;;;;;;;;;;;26.30;83.50;;;;;;5057259;28;19933;-59
2022/08/02 05:41:19;;;;;;;;;;;26.30;83.60;;;;;;5054482;28;20651;-57
2022/08/02 05:43:46;;;;;;;;;;;26.30;83.50;;;;;;5049031;28;20426;-59
2022/08/02 05:46:13;;;;;;;;;;;26.30;83.40;;;;;;5050058;28;19928;-56
2022/08/02 05:48:40;;;;;;;;;;;26.30;83.60;;;;;;5056771;28;20004;-58
2022/08/02 05:51:11;;;;;;;;;;;26.30;83.70;;;;;;5044433;28;19948;-61
2022/08/02 05:53:41;;;;;;;;;;;26.30;84.20;;;;;;5054716;28;19928;-59
2022/08/02 05:56:29;;;;;;;;;;;26.40;84.40;;;;;;5056605;28;20414;-55
2022/08/02 05:59:02;;;;;;;;;;;26.40;83.80;;;;;;5050172;28;19933;-59
2022/08/02 06:01:35;;;;;;;;;;;26.30;83.40;;;;;;5053886;28;19931;-59
2022/08/02 06:04:07;;;;;;;;;;;26.20;83.60;;;;;;5055542;28;19932;-59
2022/08/02 06:06:35;;;;;;;;;;;26.20;83.60;;;;;;5048640;28;19929;-59
2022/08/02 06:09:09;;;;;;;;;;;26.20;83.80;;;;;;5046851;28;19925;-58
2022/08/02 06:11:38;;;;;;;;;;;26.20;83.70;;;;;;5042730;28;20596;-59
2022/08/02 06:14:06;;;;;;;;;;;26.20;83.80;;;;;;5046998;28;19932;-57
2022/08/02 06:16:33;;;;;;;;;;;26.10;83.90;;;;;;5043271;28;19932;-60
2022/08/02 06:19:10;;;;;;;;;;;26.20;84.30;;;;;;5045568;28;19924;-60
2022/08/02 06:21:40;;;;;;;;;;;26.20;84.40;;;;;;5046968;28;19933;-61
2022/08/02 06:24:28;;;;;;;;;;;26.20;84.10;;;;;;5045070;28;19933;-56
2022/08/02 06:26:56;;;;;;;;;;;26.20;84.20;;;;;;5044577;28;19936;-56
2022/08/02 06:29:23;;;;;;;;;;;26.20;84.20;;;;;;5048360;28;19925;-60
2022/08/02 06:31:52;;;;;;;;;;;26.20;84.30;;;;;;5045521;28;19925;-57
2022/08/02 06:34:19;;;;;;;;;;;26.30;84.30;;;;;;5043426;28;19936;-56
2022/08/02 06:36:51;;;;;;;;;;;26.20;84.40;;;;;;5048493;28;19933;-59
2022/08/02 06:39:31;;;;;;;;;;;26.30;84.50;;;;;;5045898;28;19933;-61
2022/08/02 06:42:01;;;;;;;;;;;26.30;84.60;;;;;;5046597;28;19935;-61
2022/08/02 06:44:38;;;;;;;;;;;26.30;84.50;;;;;;5053665;28;19929;-56
2022/08/02 06:47:15;;;;;;;;;;;26.30;84.50;;;;;;5043759;28;19947;-57
2022/08/02 06:49:43;;;;;;;;;;;26.30;84.50;;;;;;5056201;28;19936;-59
2022/08/02 06:52:24;;;;;;;;;;;26.30;85.00;;;;;;5046329;28;19924;-57
2022/08/02 06:54:56;;;;;;;;;;;26.30;84.70;;;;;;5068427;28;19932;-61
2022/08/02 06:57:23;;;;;;;;;;;26.30;84.40;;;;;;5052138;28;19929;-59
2022/08/02 06:59:51;;;;;;;;;;;26.30;84.50;;;;;;5039495;28;19925;-59
2022/08/02 07:02:18;;;;;;;;;;;26.30;84.50;;;;;;5042406;28;19986;-61
2022/08/02 07:04:45;;;;;;;;;;;26.30;84.30;;;;;;5045606;28;19924;-61
2022/08/02 07:07:12;;;;;;;;;;;26.20;84.30;;;;;;5040667;28;19929;-60
2022/08/02 07:09:39;;;;;;;;;;;26.30;84.70;;;;;;5042249;28;19936;-61
2022/08/02 07:12:29;;;;;;;;;;;26.30;84.50;;;;;;5048957;28;19940;-60
2022/08/02 07:14:58;;;;;;;;;;;26.30;84.60;;;;;;5050282;28;19935;-61
2022/08/02 07:17:25;;;;;;;;;;;26.20;84.50;;;;;;5054840;28;19929;-60
2022/08/02 07:19:53;;;;;;;;;;;25.90;84.70;;;;;;5046153;28;19936;-61
2022/08/02 07:22:22;;;;;;;;;;;25.70;85.40;;;;;;5050293;28;19926;-59
2022/08/02 07:24:49;;;;;;;;;;;25.50;85.50;;;;;;5062190;28;19929;-60
2022/08/02 07:27:17;;;;;;;;;;;25.30;85.70;;;;;;5071053;28;19936;-59
2022/08/02 07:29:44;;;;;;;;;;;25.50;85.80;;;;;;5050134;28;19925;-60
2022/08/02 07:32:14;;;;;;;;;;;25.50;86.10;;;;;;5046626;28;19929;-60
2022/08/02 07:34:42;;;;;;;;;;;25.50;85.60;;;;;;5043545;28;20324;-60
2022/08/02 07:37:16;;;;;;;;;;;25.60;85.80;;;;;;5048227;28;20027;-57
2022/08/02 07:40:05;;;;;;;;;;;25.60;85.80;;;;;;5044979;28;20681;-54
2022/08/02 07:42:40;;;;;;;;;;;25.60;86.20;;;;;;5047728;28;19929;-56
2022/08/02 07:45:08;;;;;;;;;;;25.70;86.60;;;;;;5051917;28;19935;-62
2022/08/02 07:47:39;;;;;;;;;;;25.80;86.40;;;;;;5044278;28;19932;-58
2022/08/02 07:50:07;;;;;;;;;;;25.90;86.70;;;;;;5046940;28;19928;-64
2022/08/02 07:52:35;;;;;;;;;;;26.00;87.00;;;;;;5048185;28;20307;-63
2022/08/02 07:55:02;;;;;;;;;;;26.10;87.20;;;;;;5065848;28;19991;-61
2022/08/02 07:57:30;;;;;;;;;;;26.10;87.10;;;;;;5043624;28;19928;-62
2022/08/02 07:59:57;;;;;;;;;;;26.20;87.30;;;;;;5043459;28;19932;-60
2022/08/02 08:02:24;;;;;;;;;;;26.20;87.00;;;;;;5053600;28;19951;-62
2022/08/02 08:04:51;;;;;;;;;;;26.20;86.50;;;;;;5033644;28;20404;-60
2022/08/02 08:07:19;;;;;;;;;;;26.30;86.30;;;;;;5043393;28;19929;-62
2022/08/02 08:09:49;;;;;;;;;;;26.30;85.80;;;;;;5036872;28;20357;-61
2022/08/02 08:12:17;;;;;;;;;;;26.30;84.00;;;;;;5059293;28;20344;-63
2022/08/02 08:14:44;;;;;;;;;;;26.20;84.80;;;;;;5041735;28;19931;-63
2022/08/02 08:17:11;;;;;;;;;;;26.30;83.80;;;;;;5039517;28;20328;-62
2022/08/02 08:19:38;;;;;;;;;;;26.30;83.50;;;;;;5044058;28;20331;-62
2022/08/02 08:22:19;;;;;;;;;;;26.30;82.90;;;;;;5052297;28;19929;-59
2022/08/02 08:24:46;;;;;;;;;;;26.30;82.40;;;;;;5059633;28;19928;-63
2022/08/02 08:27:14;;;;;;;;;;;26.30;82.30;;;;;;5054733;28;19931;-63
2022/08/02 08:29:42;;;;;;;;;;;26.30;82.20;;;;;;5041759;28;19928;-64
2022/08/02 08:32:09;;;;;;;;;;;26.40;82.10;;;;;;5052788;28;20114;-63
2022/08/02 08:34:44;;;;;;;;;;;26.40;82.10;;;;;;5049497;28;19936;-62
2022/08/02 08:37:11;;;;;;;;;;;26.40;82.00;;;;;;5049189;28;19932;-63
2022/08/02 08:39:45;;;;;;;;;;;26.40;82.00;;;;;;5047880;28;19932;-61
2022/08/02 08:42:25;;;;;;;;;;;26.40;82.10;;;;;;5052362;28;20307;-59
2022/08/02 08:44:54;;;;;;;;;;;26.40;82.70;;;;;;5043793;28;19944;-62
2022/08/02 08:47:22;;;;;;;;;;;26.50;82.30;;;;;;5047208;28;19935;-62
2022/08/02 08:49:51;;;;;;;;;;;26.50;82.30;;;;;;5040135;28;19932;-62
2022/08/02 08:52:21;;;;;;;;;;;26.50;82.40;;;;;;5043132;28;19929;-59
2022/08/02 08:54:48;;;;;;;;;;;26.50;82.40;;;;;;5041974;28;19924;-62
2022/08/02 08:57:18;;;;;;;;;;;26.50;82.40;;;;;;5044161;28;19936;-60
2022/08/02 08:59:45;;;;;;;;;;;26.50;82.50;;;;;;5052464;28;19925;-63
2022/08/02 09:02:12;;;;;;;;;;;26.50;82.50;;;;;;5045282;28;19929;-63
2022/08/02 09:04:49;;;;;;;;;;;26.50;82.50;;;;;;5051084;28;19956;-62
2022/08/02 09:07:22;;;;;;;;;;;26.50;82.60;;;;;;5052495;28;19944;-64
2022/08/02 09:09:49;;;;;;;;;;;26.50;82.60;;;;;;5044603;28;19928;-61
2022/08/02 09:12:20;;;;;;;;;;;26.50;82.60;;;;;;5046831;28;19952;-62
2022/08/02 09:14:48;;;;;;;;;;;26.50;82.70;;;;;;5044835;28;20262;-63
2022/08/02 09:17:16;;;;;;;;;;;26.50;82.70;;;;;;5051489;28;20401;-61
2022/08/02 09:19:44;;;;;;;;;;;26.50;82.70;;;;;;5045650;28;19929;-63
2022/08/02 09:22:13;;;;;;;;;;;26.50;82.80;;;;;;5060464;28;19929;-62
2022/08/02 09:24:42;;;;;;;;;;;26.50;82.80;;;;;;5050899;28;19928;-62
2022/08/02 09:27:10;;;;;;;;;;;26.50;82.80;;;;;;5053385;28;19931;-62
2022/08/02 09:29:38;;;;;;;;;;;26.60;82.90;;;;;;5046803;28;19941;-62
2022/08/02 09:32:28;;;;;;;;;;;26.60;82.90;;;;;;5050141;28;19928;-62
2022/08/02 09:34:55;;;;;;;;;;;26.60;82.90;;;;;;5047327;28;19928;-63
2022/08/02 09:37:23;;;;;;;;;;;26.60;82.90;;;;;;5052390;28;19935;-61
2022/08/02 09:39:50;;;;;;;;;;;26.60;82.90;;;;;;5051175;28;19936;-63
2022/08/02 09:42:25;;;;;;;;;;;26.60;82.90;;;;;;5048886;28;19931;-59
2022/08/02 09:44:58;;;;;;;;;;;26.60;82.90;;;;;;5054204;28;19935;-63
2022/08/02 09:47:26;;;;;;;;;;;26.60;83.50;;;;;;5049359;28;20292;-62
2022/08/02 09:49:54;;;;;;;;;;;26.60;82.90;;;;;;5036940;28;20376;-63
2022/08/02 09:52:28;;;;;;;;;;;26.60;82.90;;;;;;5047970;28;19925;-62
2022/08/02 09:55:10;;;;;;;;;;;26.60;82.90;;;;;;5039221;28;19925;-62
2022/08/02 09:57:37;;;;;;;;;;;26.60;82.90;;;;;;5043737;28;19936;-62
2022/08/02 10:00:06;;;;;;;;;;;26.60;82.90;;;;;;5047754;28;19936;-63
2022/08/02 10:03:00;;;;;;;;;;;26.60;82.90;;;;;;5053142;28;19929;-62
2022/08/02 10:05:29;;;;;;;;;;;26.60;82.90;;;;;;5052886;28;20316;-62
2022/08/02 10:08:13;;;;;;;;;;;26.60;82.90;;;;;;5047981;28;19928;-62
2022/08/02 10:10:41;;;;;;;;;;;26.60;82.90;;;;;;5046160;28;20392;-62
2022/08/02 10:13:09;;;;;;;;;;;26.60;82.80;;;;;;5055453;28;19952;-62
2022/08/02 10:15:37;;;;;;;;;;;26.60;82.90;;;;;;5051062;28;19935;-62
2022/08/02 10:18:16;;;;;;;;;;;26.60;82.80;;;;;;5054621;28;19929;-61
2022/08/02 10:21:05;;;;;;;;;;;26.60;82.90;;;;;;5047306;28;19924;-61
2022/08/02 10:23:35;;;;;;;;;;;26.60;82.90;;;;;;5048857;28;20316;-63
2022/08/02 10:26:03;;;;;;;;;;;26.60;82.80;;;;;;5049134;28;20313;-61
2022/08/02 10:28:30;;;;;;;;;;;26.70;82.80;;;;;;5047002;28;19925;-62
2022/08/02 10:31:00;;;;;;;;;;;26.60;82.80;;;;;;5043832;28;19925;-63
2022/08/02 10:33:33;;;;;;;;;;;26.60;82.80;;;;;;5053107;28;19924;-62
2022/08/02 10:36:01;;;;;;;;;;;26.70;82.80;;;;;;5049736;28;19929;-57
2022/08/02 10:38:34;;;;;;;;;;;26.60;83.30;;;;;;5038948;28;19943;-63
2022/08/02 10:41:01;;;;;;;;;;;26.60;82.70;;;;;;5054492;28;19928;-62
2022/08/02 10:43:31;;;;;;;;;;;26.70;82.80;;;;;;5049116;28;20442;-62
2022/08/02 10:46:17;;;;;;;;;;;26.70;82.70;;;;;;5053760;28;19939;-62
2022/08/02 10:49:03;;;;;;;;;;;26.70;82.70;;;;;;5054719;28;19940;-62
2022/08/02 10:51:53;;;;;;;;;;;26.70;82.70;;;;;;5057207;28;20296;-62
2022/08/02 10:54:21;;;;;;;;;;;26.70;82.70;;;;;;5056473;28;19925;-63
2022/08/02 10:56:49;;;;;;;;;;;26.70;82.70;;;;;;5042606;28;20411;-63
2022/08/02 10:59:27;;;;;;;;;;;26.70;82.70;;;;;;5052086;28;19933;-63
2022/08/02 11:02:01;;;;;;;;;;;26.70;82.80;;;;;;5042896;28;19925;-59
2022/08/02 11:04:40;;;;;;;;;;;26.70;82.70;;;;;;5059257;28;19940;-61
2022/08/02 11:07:10;;;;;;;;;;;26.70;82.70;;;;;;5051211;28;20300;-62
2022/08/02 11:09:37;;;;;;;;;;;26.70;82.70;;;;;;5052346;28;19928;-62
2022/08/02 11:12:06;;;;;;;;;;;26.70;82.80;;;;;;5049217;28;19933;-63
2022/08/02 11:14:35;;;;;;;;;;;26.70;82.80;;;;;;5040332;28;19925;-62
2022/08/02 11:17:04;;;;;;;;;;;26.70;82.70;;;;;;5052249;28;19924;-62
2022/08/02 11:19:31;;;;;;;;;;;26.70;82.70;;;;;;5057700;28;20338;-60
2022/08/02 11:22:10;;;;;;;;;;;26.80;82.80;;;;;;5056472;28;20297;-63
2022/08/02 11:24:38;;;;;;;;;;;26.80;82.80;;;;;;5037742;28;20335;-62
2022/08/02 11:27:07;;;;;;;;;;;26.70;82.70;;;;;;5056025;28;19935;-62
2022/08/02 11:29:38;;;;;;;;;;;26.70;82.70;;;;;;5059892;28;20415;-61
2022/08/02 11:32:06;;;;;;;;;;;26.80;82.80;;;;;;5056820;28;19924;-58
2022/08/02 11:34:33;;;;;;;;;;;26.80;82.80;;;;;;5039755;28;19936;-61
2022/08/02 11:37:04;;;;;;;;;;;26.80;82.80;;;;;;5047687;28;20419;-61
2022/08/02 11:39:31;;;;;;;;;;;26.80;82.90;;;;;;5039348;28;19967;-62
2022/08/02 11:41:59;;;;;;;;;;;26.80;82.90;;;;;;5043217;28;20311;-59
2022/08/02 11:44:27;;;;;;;;;;;26.70;82.90;;;;;;5048048;28;19924;-61
2022/08/02 11:46:59;;;;;;;;;;;26.70;83.10;;;;;;5048982;28;19955;-60
2022/08/02 11:49:27;;;;;;;;;;;26.70;83.20;;;;;;5043188;28;19929;-59
2022/08/02 11:51:58;;;;;;;;;;;26.70;83.30;;;;;;5043235;28;19928;-56
2022/08/02 11:54:27;;;;;;;;;;;26.70;83.70;;;;;;5045460;28;19929;-58
2022/08/02 11:56:54;;;;;;;;;;;26.80;84.40;;;;;;5041779;28;19940;-57
2022/08/02 11:59:21;;;;;;;;;;;26.80;84.60;;;;;;5046737;28;19929;-60
2022/08/02 12:01:48;;;;;;;;;;;26.80;85.40;;;;;;5043927;28;19925;-60
2022/08/02 12:04:17;;;;;;;;;;;26.90;85.50;;;;;;5042429;28;19928;-59
2022/08/02 12:06:52;;;;;;;;;;;26.90;85.80;;;;;;5042610;28;19924;-59
2022/08/02 12:09:19;;;;;;;;;;;26.90;86.00;;;;;;5054099;28;19936;-62
2022/08/02 12:11:52;;;;;;;;;;;26.90;86.60;;;;;;5040790;28;19936;-61
2022/08/02 12:14:20;;;;;;;;;;;26.90;86.80;;;;;;5052503;28;19929;-63
2022/08/02 12:19:34;;;;;;;;;;;26.90;86.90;;;;;;5048410;28;19925;-60
2022/08/02 12:22:07;;;;;;;;;;;26.90;86.80;;;;;;5055537;28;19928;-62
2022/08/02 12:24:34;;;;;;;;;;;26.90;86.70;;;;;;5038710;28;19944;-61
2022/08/02 12:27:02;;;;;;;;;;;27.00;86.70;;;;;;5038598;28;19932;-61
2022/08/02 12:29:29;;;;;;;;;;;26.90;86.60;;;;;;5050412;28;19932;-63
2022/08/02 12:32:22;;;;;;;;;;;27.00;86.90;;;;;;5039271;28;19951;-57
2022/08/02 12:34:59;;;;;;;;;;;27.00;87.30;;;;;;5049028;28;20319;-57
2022/08/02 12:37:26;;;;;;;;;;;27.00;87.50;;;;;;5047731;28;20412;-62
2022/08/02 12:39:54;;;;;;;;;;;27.00;87.70;;;;;;5037263;28;21276;-59
2022/08/02 12:42:21;;;;;;;;;;;27.00;88.00;;;;;;5039687;28;20476;-61
2022/08/02 12:44:52;;;;;;;;;;;27.10;88.30;;;;;;5039697;28;19933;-59
2022/08/02 12:47:20;;;;;;;;;;;27.10;88.70;;;;;;5041392;28;19929;-60
2022/08/02 12:50:06;;;;;;;;;;;27.10;88.90;;;;;;5043878;28;19928;-61
2022/08/02 12:52:34;;;;;;;;;;;27.10;88.80;;;;;;5040541;28;19936;-61
2022/08/02 12:55:13;;;;;;;;;;;27.10;88.90;;;;;;5040077;28;19936;-61
2022/08/02 12:58:10;;;;;;;;;;;27.20;89.10;;;;;;5041912;28;19939;-63
2022/08/02 13:00:37;;;;;;;;;;;27.20;90.50;;;;;;5036523;28;20409;-60
2022/08/02 13:03:08;;;;;;;;;;;27.30;90.60;;;;;;5045546;28;19928;-61
2022/08/02 13:05:56;;;;;;;;;;;27.30;90.70;;;;;;5043433;28;19929;-62
2022/08/02 13:08:33;;;;;;;;;;;27.30;90.80;;;;;;5039462;28;20307;-61
2022/08/02 13:11:00;;;;;;;;;;;27.30;90.80;;;;;;5040118;28;19933;-59
2022/08/02 13:13:27;;;;;;;;;;;27.40;90.90;;;;;;5041744;28;19940;-61
2022/08/02 13:15:57;;;;;;;;;;;27.40;90.80;;;;;;5050066;28;19935;-59
2022/08/02 13:18:24;;;;;;;;;;;27.40;90.80;;;;;;5042592;28;19925;-62
2022/08/02 13:20:56;;;;;;;;;;;27.40;90.80;;;;;;5043429;28;19929;-60
2022/08/02 13:23:25;;;;;;;;;;;27.40;90.80;;;;;;5041104;28;19929;-60
2022/08/02 13:26:12;;;;;;;;;;;27.50;90.80;;;;;;5046207;28;19929;-63
2022/08/02 13:28:41;;;;;;;;;;;27.50;90.80;;;;;;5035718;28;20415;-60
2022/08/02 13:31:08;;;;;;;;;;;27.50;90.70;;;;;;5036547;28;19948;-59
2022/08/02 13:33:55;;;;;;;;;;;27.50;90.50;;;;;;5040788;28;20368;-59
2022/08/02 13:36:22;;;;;;;;;;;27.50;90.40;;;;;;5042653;28;19952;-58
2022/08/02 13:38:49;;;;;;;;;;;27.50;90.30;;;;;;5037774;28;19935;-59
2022/08/02 13:41:16;;;;;;;;;;;27.60;90.20;;;;;;5041041;28;20316;-59
2022/08/02 13:43:44;;;;;;;;;;;27.60;90.10;;;;;;5043959;28;20336;-58
2022/08/02 13:46:23;;;;;;;;;;;27.60;90.10;;;;;;5045091;28;19996;-60
2022/08/02 13:48:55;;;;;;;;;;;27.60;90.10;;;;;;5043953;28;20312;-60
2022/08/02 13:51:22;;;;;;;;;;;27.70;90.00;;;;;;5042758;28;19940;-61
2022/08/02 13:53:50;;;;;;;;;;;27.70;90.00;;;;;;5043949;28;19933;-61
2022/08/02 13:56:17;;;;;;;;;;;27.80;90.00;;;;;;5052235;28;19948;-58
2022/08/02 13:58:44;;;;;;;;;;;27.80;89.90;;;;;;5038811;28;19929;-59
2022/08/02 14:01:11;;;;;;;;;;;27.90;89.80;;;;;;5047634;28;19959;-60
2022/08/02 14:03:39;;;;;;;;;;;27.90;89.70;;;;;;5038995;28;19933;-59
2022/08/02 14:06:26;;;;;;;;;;;27.90;89.60;;;;;;5049018;28;19929;-60
2022/08/02 14:08:53;;;;;;;;;;;28.00;89.70;;;;;;5071806;28;19936;-62
2022/08/02 14:11:20;;;;;;;;;;;28.00;89.50;;;;;;5042480;28;19943;-61
2022/08/02 14:13:47;;;;;;;;;;;28.00;90.00;;;;;;5043100;28;19935;-61
2022/08/02 14:16:14;;;;;;;;;;;28.00;89.50;;;;;;5045156;28;19941;-58
2022/08/02 14:18:41;;;;;;;;;;;28.00;89.30;;;;;;5046732;28;19928;-62
2022/08/02 14:21:08;;;;;;;;;;;28.10;89.20;;;;;;5045507;28;19951;-59
2022/08/02 14:23:35;;;;;;;;;;;28.10;89.10;;;;;;5044085;28;19925;-55
2022/08/02 14:26:17;;;;;;;;;;;28.10;88.80;;;;;;5043205;28;19929;-58
2022/08/02 14:28:54;;;;;;;;;;;28.10;88.60;;;;;;5042746;28;20351;-60
2022/08/02 14:31:21;;;;;;;;;;;28.20;88.50;;;;;;5056934;28;19924;-61
2022/08/02 14:33:48;;;;;;;;;;;28.20;88.40;;;;;;5059677;28;20419;-59
2022/08/02 14:36:15;;;;;;;;;;;28.20;88.30;;;;;;5049854;28;19925;-61
2022/08/02 14:38:54;;;;;;;;;;;28.20;88.30;;;;;;5054128;28;19924;-58
2022/08/02 14:41:22;;;;;;;;;;;28.20;88.20;;;;;;5050496;28;19925;-60
2022/08/02 14:44:04;;;;;;;;;;;28.20;88.20;;;;;;5053243;28;19948;-60